»·PEaware :: UAL576 KLAS-KSFO

UAL576 :: KLAS-KSFO

FLIGHT INFORMATION

Flight Status: Arrived
Operator:
United Airlines
More flights by this operator :: More flights under this callsign
Pilot: Anonymous 8274 (8274)
Aircraft: BOEING 737-200
(B732)
More flights by this aircraft type
Origin: KLAS McCarran Intl
United States
Destination: KSFO San Francisco Intl
United States
More flights between these airports :: More routes between these airports
Route: +MCCRN5 BTY J92 OAL MOD8
File this flight plan on PilotEdge
Remarks:
Altitude:
(Current/Filed)
30,000ft
Speed:
(Current/Filed)
460kts
Departed: 08-Jan-18 07:59 PM
Arrived: 08-Jan-18 09:20 PM
Distance/Time
Traveled:
359nm/1:21
Distance/Time
To Go:
Arrived

Flight Plot

Page will automatically refresh every two minutes.

Flight plan parsing failed; only flown route is shown


Map Options




Map Legend


Flown Route
Filed Route
Departure Airport
Arrival Airport
Navaid (VOR, NDB)
Fix

Horizontal Profiles

Position Reports

Time Latitude Longitude Heading Altitude Ground
Speed
08-Jan-18 19:31 36.079883 -115.139541 355 2120ft 0kts
08-Jan-18 19:32 36.079883 -115.139541 355 2120ft 0kts
08-Jan-18 19:33 36.079883 -115.139541 355 2120ft 0kts
08-Jan-18 19:34 36.079883 -115.139541 355 2120ft 0kts
08-Jan-18 19:35 36.079883 -115.139541 355 2120ft 0kts
08-Jan-18 19:36 36.079883 -115.139541 355 2120ft 0kts
08-Jan-18 19:37 36.079883 -115.139541 355 2120ft 0kts
08-Jan-18 19:38 36.079883 -115.139541 355 2120ft 0kts
08-Jan-18 19:39 36.079883 -115.139541 355 2120ft 0kts
08-Jan-18 19:40 36.079883 -115.139541 355 2120ft 0kts
08-Jan-18 19:41 36.079883 -115.139541 355 2120ft 0kts
08-Jan-18 19:42 36.079883 -115.139541 355 2120ft 0kts
08-Jan-18 19:43 36.079883 -115.139541 355 2120ft 0kts
08-Jan-18 19:44 36.079883 -115.139541 355 2120ft 0kts
08-Jan-18 19:45 36.079883 -115.139541 355 2120ft 0kts
08-Jan-18 19:46 36.079883 -115.139541 355 2120ft 0kts
08-Jan-18 19:47 36.079883 -115.139541 355 2120ft 0kts
08-Jan-18 19:48 36.079883 -115.139541 355 2120ft 0kts
08-Jan-18 19:49 36.079883 -115.139541 355 2120ft 0kts
08-Jan-18 19:50 36.079883 -115.139541 355 2120ft 0kts
08-Jan-18 19:51 36.079883 -115.139541 355 2120ft 0kts
08-Jan-18 19:52 36.079883 -115.139541 355 2120ft 0kts
08-Jan-18 19:53 36.079883 -115.139541 355 2120ft 0kts
08-Jan-18 19:54 36.079883 -115.139541 355 2120ft 0kts
08-Jan-18 19:55 36.079638 -115.139496 355 2120ft 2kts
08-Jan-18 19:56 36.079290 -115.139117 261 2120ft 2kts
08-Jan-18 19:57 36.079365 -115.138927 229 2120ft 0kts
08-Jan-18 19:58 36.079365 -115.138927 229 2120ft 0kts
08-Jan-18 19:59 36.079094 -115.139255 224 2120ft 0kts
08-Jan-18 20:00 36.079093 -115.139255 224 2120ft 0kts
08-Jan-18 20:01 36.078270 -115.135980 91 2120ft 23kts
08-Jan-18 20:02 36.078256 -115.123283 90 2120ft 25kts
08-Jan-18 20:03 36.077457 -115.121552 143 2120ft 0kts
08-Jan-18 20:04 36.076399 -115.121678 261 2120ft 7kts
08-Jan-18 20:05 36.076390 -115.141650 272 2159ft 156kts
08-Jan-18 20:06 36.075688 -115.195937 270 3924ft 168kts
08-Jan-18 20:07 36.056738 -115.256261 204 5571ft 236kts
08-Jan-18 20:08 35.987842 -115.289194 200 6944ft 293kts
08-Jan-18 20:09 35.913476 -115.320099 176 6936ft 269kts
08-Jan-18 20:10 35.839744 -115.305940 169 8782ft 287kts
08-Jan-18 20:11 35.757112 -115.288767 169 10399ft 331kts
08-Jan-18 20:12 35.665933 -115.269500 169 12728ft 340kts
08-Jan-18 20:13 35.573459 -115.276631 219 14667ft 352kts
08-Jan-18 20:14 35.557008 -115.386084 289 16434ft 354kts
08-Jan-18 20:15 35.588121 -115.502441 289 18017ft 363kts
08-Jan-18 20:16 35.620405 -115.622128 289 19000ft 379kts
08-Jan-18 20:17 35.646664 -115.719221 292 18995ft 372kts
08-Jan-18 20:18 35.713292 -115.812103 317 19018ft 366kts
08-Jan-18 20:19 35.787882 -115.899250 317 20591ft 373kts
08-Jan-18 20:20 35.870490 -115.978290 324 22021ft 380kts
08-Jan-18 20:21 35.959136 -116.052712 327 23001ft 396kts
08-Jan-18 20:22 36.053072 -116.126864 330 22999ft 393kts
08-Jan-18 20:23 36.142777 -116.191267 330 23684ft 391kts
08-Jan-18 20:24 36.237133 -116.259055 331 24272ft 397kts
08-Jan-18 20:25 36.332486 -116.328886 327 25299ft 403kts
08-Jan-18 20:26 36.421451 -116.413755 321 26245ft 407kts
08-Jan-18 20:27 36.495099 -116.487934 321 26876ft 413kts
08-Jan-18 20:28 36.595388 -116.587126 324 27897ft 412kts
08-Jan-18 20:29 36.664028 -116.633964 325 27947ft 437kts
08-Jan-18 20:30 36.782977 -116.706577 324 29067ft 432kts
08-Jan-18 20:31 36.864089 -116.771499 294 29535ft 399kts
08-Jan-18 20:32 36.850260 -116.904714 234 30048ft 353kts
08-Jan-18 20:33 36.805367 -116.991313 239 30042ft 367kts
08-Jan-18 20:34 36.840854 -117.132999 318 30044ft 454kts
08-Jan-18 20:35 36.948087 -117.149552 5 30045ft 500kts
08-Jan-18 20:36 37.084165 -117.118342 6 30034ft 498kts
08-Jan-18 20:37 37.214876 -117.092875 6 30022ft 495kts
08-Jan-18 20:38 37.338663 -117.128399 309 30036ft 455kts
08-Jan-18 20:39 37.413178 -117.252401 311 30028ft 454kts
08-Jan-18 20:40 37.511817 -117.350562 319 30025ft 459kts
08-Jan-18 20:41 37.616056 -117.442505 320 30025ft 459kts
08-Jan-18 20:42 37.721501 -117.532688 323 30030ft 460kts
08-Jan-18 20:43 37.828326 -117.620497 321 30025ft 459kts
08-Jan-18 20:44 37.929982 -117.708288 320 30004ft 460kts
08-Jan-18 20:45 38.031749 -117.803143 302 30009ft 447kts
08-Jan-18 20:46 38.041887 -117.941752 241 30013ft 404kts
08-Jan-18 20:47 37.988902 -118.066733 247 29958ft 409kts
08-Jan-18 20:48 37.962713 -118.206498 256 29950ft 414kts
08-Jan-18 20:49 37.945846 -118.350118 258 29953ft 415kts
08-Jan-18 20:50 37.930787 -118.493959 258 29974ft 415kts
08-Jan-18 20:51 37.915880 -118.638116 258 29991ft 414kts
08-Jan-18 20:52 37.900847 -118.777095 258 29996ft 415kts
08-Jan-18 20:53 37.885570 -118.920937 257 29995ft 415kts
08-Jan-18 20:54 37.870128 -119.065448 257 29995ft 414kts
08-Jan-18 20:55 37.854604 -119.208515 257 29993ft 410kts
08-Jan-18 20:56 37.838981 -119.350795 257 29990ft 407kts
08-Jan-18 20:57 37.816304 -119.488744 246 30006ft 396kts
08-Jan-18 20:58 37.789370 -119.624326 254 29935ft 402kts
08-Jan-18 20:59 37.772365 -119.751795 255 29851ft 408kts
08-Jan-18 21:00 37.756402 -119.885765 256 29831ft 410kts
08-Jan-18 21:01 37.739792 -120.028331 256 29827ft 412kts
08-Jan-18 21:02 37.723032 -120.170858 256 29827ft 413kts
08-Jan-18 21:03 37.706001 -120.313915 256 29827ft 413kts
08-Jan-18 21:04 37.689313 -120.454046 256 28102ft 396kts
08-Jan-18 21:05 37.673152 -120.588415 256 25718ft 384kts
08-Jan-18 21:06 37.659232 -120.700992 255 23750ft 374kts
08-Jan-18 21:07 37.644704 -120.817279 255 21686ft 365kts
08-Jan-18 21:08 37.629920 -120.936663 254 19585ft 356kts
08-Jan-18 21:09 37.616051 -121.057537 255 17455ft 348kts
08-Jan-18 21:10 37.602865 -121.175939 255 15423ft 338kts
08-Jan-18 21:11 37.589855 -121.291228 255 13448ft 329kts
08-Jan-18 21:12 37.577205 -121.402279 255 11526ft 322kts
08-Jan-18 21:13 37.565837 -121.502250 255 11021ft 275kts
08-Jan-18 21:14 37.554998 -121.594965 255 11040ft 287kts
08-Jan-18 21:15 37.541953 -121.689178 249 11019ft 280kts
08-Jan-18 21:16 37.524285 -121.778467 249 9767ft 273kts
08-Jan-18 21:17 37.505185 -121.861085 246 8461ft 272kts
08-Jan-18 21:18 37.482402 -121.947055 246 7129ft 272kts
08-Jan-18 21:19 37.471755 -122.031040 298 6065ft 240kts
08-Jan-18 21:20 37.507149 -122.099611 291 4338ft 233kts
08-Jan-18 21:21 37.535348 -122.169043 300 3100ft 206kts
08-Jan-18 21:22 37.561973 -122.234176 297 1887ft 187kts
08-Jan-18 21:23 37.581799 -122.282215 300 1067ft 142kts
08-Jan-18 21:24 37.597532 -122.318921 297 507ft 128kts
08-Jan-18 21:25 37.614329 -122.359058 298 54ft 129kts
08-Jan-18 21:26 37.622168 -122.380008 278 21ft 27kts
08-Jan-18 21:27 37.621596 -122.387859 260 21ft 20kts
08-Jan-18 21:28 37.621338 -122.388570 227 21ft 0kts
08-Jan-18 21:29 37.621338 -122.388570 227 21ft 0kts
08-Jan-18 21:30 37.621701 -122.390479 248 21ft 17kts
08-Jan-18 21:31 37.619701 -122.388281 27 21ft 4kts
08-Jan-18 21:32 37.619736 -122.388260 26 21ft 0kts
08-Jan-18 21:33 37.619736 -122.388260 26 21ft 0kts
08-Jan-18 21:34 37.619736 -122.388260 26 21ft 0kts
08-Jan-18 21:35 37.619736 -122.388260 26 21ft 0kts
08-Jan-18 21:36 37.619736 -122.388260 26 21ft 0kts
08-Jan-18 21:37 37.619736 -122.388260 26 21ft 0kts
08-Jan-18 21:38 37.619736 -122.388260 26 21ft 0kts
08-Jan-18 21:39 37.619736 -122.388260 26 21ft 0kts
08-Jan-18 21:40 37.619736 -122.388260 26 21ft 0kts

Navigation Log

Ident Type
Flight plan parsing failed, navigation log unavailable